createdAt,value
2017-06-05T00:01:24.092Z,54.20
2017-06-05T00:03:52.164Z,55.30
2017-06-05T00:06:20.250Z,55.50
2017-06-05T00:08:48.313Z,55.10
2017-06-05T00:11:16.367Z,55.50
2017-06-05T00:13:44.492Z,55.70
2017-06-05T00:16:12.564Z,55.20
2017-06-05T00:18:41.407Z,55.30
2017-06-05T00:21:09.486Z,55.20
2017-06-05T00:23:37.554Z,55.70
2017-06-05T00:26:05.618Z,55.20
2017-06-05T00:28:33.680Z,56.00
2017-06-05T00:31:01.783Z,54.80
2017-06-05T00:33:29.831Z,55.50
2017-06-05T00:35:57.885Z,57.20
2017-06-05T00:38:25.987Z,55.30
2017-06-05T00:40:54.098Z,55.50
2017-06-05T00:43:22.171Z,55.10
2017-06-05T00:45:50.226Z,55.50
2017-06-05T00:48:19.074Z,55.50
2017-06-05T00:50:47.142Z,55.40
2017-06-05T00:53:15.201Z,55.90
2017-06-05T00:55:43.295Z,56.00
2017-06-05T00:58:11.350Z,56.10
2017-06-05T01:00:39.459Z,56.90
2017-06-05T01:03:07.514Z,55.90
2017-06-05T01:05:35.566Z,57.00
2017-06-05T01:08:03.650Z,56.30
2017-06-05T01:10:31.758Z,55.60
2017-06-05T01:12:59.806Z,55.80
2017-06-05T01:15:27.875Z,56.60
2017-06-05T01:17:55.931Z,56.30
2017-06-05T01:20:24.009Z,56.70
2017-06-05T01:22:52.064Z,58.60
2017-06-05T01:25:20.113Z,58.30
2017-06-05T01:27:48.194Z,56.90
2017-06-05T01:30:16.314Z,57.40
2017-06-05T01:32:44.371Z,57.10
2017-06-05T01:35:12.413Z,56.80
2017-06-05T01:37:40.465Z,57.40
2017-06-05T01:40:08.554Z,57.50
2017-06-05T01:42:36.605Z,58.60
2017-06-05T01:45:05.424Z,57.90
2017-06-05T01:47:33.505Z,57.90
2017-06-05T01:50:01.568Z,59.30
2017-06-05T01:52:29.617Z,59.00
2017-06-05T01:54:57.701Z,59.80
2017-06-05T01:57:25.753Z,58.50
2017-06-05T01:59:53.810Z,59.50
2017-06-05T02:02:21.924Z,60.30
2017-06-05T02:04:49.975Z,62.20
2017-06-05T02:07:18.028Z,61.70
2017-06-05T02:09:46.875Z,62.90
2017-06-05T02:12:14.994Z,62.80
2017-06-05T02:14:43.090Z,63.00
2017-06-05T02:17:11.300Z,63.10
2017-06-05T02:19:39.450Z,63.30
2017-06-05T02:22:07.571Z,63.00
2017-06-05T02:24:35.646Z,63.50
2017-06-05T02:27:03.677Z,63.60
2017-06-05T02:29:31.766Z,63.20
2017-06-05T02:31:59.819Z,62.80
2017-06-05T02:34:27.919Z,63.70
2017-06-05T02:36:55.988Z,65.10
2017-06-05T02:39:24.062Z,65.10
2017-06-05T02:41:52.120Z,65.60
2017-06-05T02:44:20.173Z,66.60
2017-06-05T02:46:48.265Z,66.30
2017-06-05T02:49:16.315Z,65.90
2017-06-05T02:51:44.379Z,64.40
2017-06-05T02:54:12.454Z,65.10
2017-06-05T02:56:40.531Z,66.40
2017-06-05T02:59:08.602Z,63.30
2017-06-05T03:01:36.659Z,64.10
2017-06-05T03:04:04.733Z,65.50
2017-06-05T03:06:33.138Z,65.30
2017-06-05T03:09:01.234Z,65.30
2017-06-05T03:11:29.283Z,66.20
2017-06-05T03:13:57.359Z,65.80
2017-06-05T03:16:25.414Z,64.70
2017-06-05T03:18:53.533Z,65.00
2017-06-05T03:21:21.580Z,63.80
2017-06-05T03:23:49.630Z,64.90
2017-06-05T03:26:17.777Z,64.50
2017-06-05T03:28:45.827Z,65.50
2017-06-05T03:31:13.906Z,65.00
2017-06-05T03:33:42.913Z,65.30
2017-06-05T03:36:11.745Z,65.00
2017-06-05T03:38:39.798Z,64.90
2017-06-05T03:41:07.878Z,65.10
2017-06-05T03:43:35.978Z,64.60
2017-06-05T03:46:04.051Z,65.70
2017-06-05T03:48:32.099Z,66.00
2017-06-05T03:51:00.159Z,65.10
2017-06-05T03:53:28.234Z,65.30
2017-06-05T03:55:56.294Z,63.90
2017-06-05T03:58:24.386Z,65.90
2017-06-05T04:00:52.438Z,65.70
2017-06-05T04:03:20.485Z,65.80
2017-06-05T04:05:48.615Z,65.50
2017-06-05T04:08:16.650Z,64.80
2017-06-05T04:10:44.697Z,65.30
2017-06-05T04:13:13.615Z,63.20
2017-06-05T04:15:41.750Z,63.10
2017-06-05T04:18:09.846Z,63.30
2017-06-05T04:20:38.730Z,62.10
2017-06-05T04:23:06.898Z,62.00
2017-06-05T04:25:34.990Z,61.90
2017-06-05T04:28:03.859Z,60.90
2017-06-05T04:30:32.737Z,62.00
2017-06-05T04:35:52.914Z,62.80
2017-06-05T04:38:21.072Z,62.60
2017-06-05T04:40:49.195Z,62.10
2017-06-05T04:43:17.354Z,62.50
2017-06-05T04:45:45.369Z,62.20
2017-06-05T04:48:13.426Z,62.50
2017-06-05T04:50:41.505Z,62.00
2017-06-05T04:53:10.321Z,61.60
2017-06-05T04:55:38.383Z,61.50
2017-06-05T04:58:06.589Z,61.40
2017-06-05T05:00:34.750Z,61.10
2017-06-05T05:03:02.925Z,61.70
2017-06-05T05:05:31.098Z,61.00
2017-06-05T05:07:59.183Z,61.30
2017-06-05T05:10:27.241Z,61.20
2017-06-05T05:12:55.310Z,61.00
2017-06-05T05:15:23.493Z,60.00
2017-06-05T05:17:51.571Z,59.40
2017-06-05T05:20:19.634Z,59.70
2017-06-05T05:22:47.802Z,59.10
2017-06-05T05:25:15.878Z,59.80
2017-06-05T05:27:43.950Z,58.50
2017-06-05T05:30:12.026Z,58.40
2017-06-05T05:32:40.109Z,58.70
2017-06-05T05:35:08.270Z,60.40
2017-06-05T05:37:36.437Z,60.00
2017-06-05T05:40:04.493Z,59.20
2017-06-05T05:42:32.960Z,56.50
2017-06-05T05:45:01.806Z,55.80
2017-06-05T05:47:29.875Z,55.70
2017-06-05T05:49:58.025Z,56.20
2017-06-05T05:52:26.207Z,56.00
2017-06-05T05:54:54.277Z,56.70
2017-06-05T05:57:22.341Z,55.30
2017-06-05T05:59:50.523Z,53.70
2017-06-05T06:02:18.698Z,54.10
2017-06-05T06:04:46.786Z,54.20
2017-06-05T06:07:14.837Z,56.10
2017-06-05T06:09:43.014Z,56.40
2017-06-05T06:12:11.089Z,55.70
2017-06-05T06:14:39.162Z,55.20
2017-06-05T06:17:07.240Z,51.80
2017-06-05T06:19:35.297Z,52.10
2017-06-05T06:22:03.375Z,52.00
2017-06-05T06:24:31.554Z,53.80
2017-06-05T06:26:59.613Z,55.20
2017-06-05T06:29:27.669Z,54.80
2017-06-05T06:31:55.866Z,54.40
2017-06-05T06:34:23.944Z,53.40
2017-06-05T06:36:52.009Z,55.20
2017-06-05T06:39:20.189Z,53.10
2017-06-05T06:41:48.262Z,50.70
2017-06-05T06:44:16.430Z,51.00
2017-06-05T06:46:44.526Z,50.10
2017-06-05T06:49:12.678Z,51.00
2017-06-05T06:51:40.762Z,50.10
2017-06-05T06:54:08.820Z,50.50
2017-06-05T06:56:36.921Z,51.50
2017-06-05T06:59:05.002Z,50.30
2017-06-05T07:01:33.150Z,50.30
2017-06-05T07:04:01.210Z,50.80
2017-06-05T07:06:29.413Z,48.80
2017-06-05T07:08:57.553Z,50.70
2017-06-05T07:11:25.630Z,50.20
2017-06-05T07:13:53.803Z,51.30
2017-06-05T07:16:21.929Z,49.90
2017-06-05T07:18:50.773Z,50.10
2017-06-05T07:21:19.146Z,50.00
2017-06-05T07:23:47.217Z,51.10
2017-06-05T07:26:15.269Z,50.40
2017-06-05T07:28:43.345Z,51.10
2017-06-05T07:31:12.761Z,50.40
2017-06-05T07:33:40.838Z,50.50
2017-06-05T07:36:08.944Z,49.60
2017-06-05T07:38:36.995Z,49.30
2017-06-05T07:41:05.059Z,49.10
2017-06-05T07:43:33.129Z,46.90
2017-06-05T07:46:01.198Z,47.20
2017-06-05T07:48:30.115Z,47.00
2017-06-05T07:50:58.242Z,47.00
2017-06-05T07:53:26.289Z,44.20
2017-06-05T07:55:55.120Z,44.60
2017-06-05T07:58:23.194Z,44.60
2017-06-05T08:00:51.250Z,43.50
2017-06-05T08:03:19.314Z,44.50
2017-06-05T08:05:47.397Z,44.50
2017-06-05T08:08:15.469Z,43.00
2017-06-05T08:10:43.522Z,43.30
2017-06-05T08:13:12.337Z,46.90
2017-06-05T08:15:40.412Z,46.70
2017-06-05T08:18:08.469Z,41.30
2017-06-05T08:20:36.521Z,41.30
2017-06-05T08:23:05.430Z,40.60
2017-06-05T08:25:33.489Z,40.40
2017-06-05T08:28:01.547Z,40.10
2017-06-05T08:30:30.393Z,37.50
2017-06-05T08:32:58.446Z,37.40
2017-06-05T08:35:26.509Z,38.50
2017-06-05T08:37:54.897Z,36.60
2017-06-05T08:40:22.950Z,35.70
2017-06-05T08:42:51.005Z,36.50
2017-06-05T08:45:19.837Z,38.70
2017-06-05T08:47:47.905Z,38.60
2017-06-05T08:50:15.961Z,37.60
2017-06-05T08:52:44.038Z,37.10
2017-06-05T08:55:12.089Z,36.00
2017-06-05T08:57:40.973Z,37.20
2017-06-05T09:00:09.034Z,37.20
2017-06-05T09:02:37.106Z,36.10
2017-06-05T09:05:05.242Z,37.30
2017-06-05T09:07:33.289Z,38.30
2017-06-05T09:10:01.337Z,35.00
2017-06-05T09:12:30.294Z,36.00
2017-06-05T09:14:58.341Z,35.80
2017-06-05T09:17:26.424Z,38.00
2017-06-05T09:19:54.618Z,37.30
2017-06-05T09:22:22.670Z,34.70
2017-06-05T09:24:50.818Z,35.70
2017-06-05T09:27:18.899Z,36.90
2017-06-05T09:29:51.866Z,33.90
2017-06-05T09:32:20.850Z,35.00
2017-06-05T09:34:49.259Z,35.00
2017-06-05T09:37:17.314Z,35.70
2017-06-05T09:39:45.418Z,33.30
2017-06-05T09:42:13.494Z,32.80
2017-06-05T09:44:41.551Z,33.30
2017-06-05T09:47:09.613Z,33.60
2017-06-05T09:49:39.282Z,32.20
2017-06-05T09:52:08.129Z,30.80
2017-06-05T09:54:36.230Z,30.80
2017-06-05T09:57:04.369Z,29.90
2017-06-05T09:59:32.437Z,32.30
2017-06-05T10:02:00.519Z,31.20
2017-06-05T10:04:29.219Z,31.60
2017-06-05T10:06:57.265Z,31.30
2017-06-05T10:09:25.345Z,29.40
2017-06-05T10:11:53.946Z,29.40
2017-06-05T10:14:22.007Z,28.60
2017-06-05T10:16:50.075Z,27.90
2017-06-05T10:19:18.243Z,28.90
2017-06-05T10:21:46.317Z,28.90
2017-06-05T10:24:14.441Z,29.20
2017-06-05T10:26:42.562Z,28.80
2017-06-05T10:29:10.631Z,29.80
2017-06-05T10:31:38.726Z,30.00
2017-06-05T10:34:06.898Z,30.30
2017-06-05T10:36:34.963Z,28.90
2017-06-05T10:39:03.037Z,29.00
2017-06-05T10:41:31.102Z,29.00
2017-06-05T10:43:59.163Z,31.20
2017-06-05T10:46:27.242Z,29.40
2017-06-05T10:48:55.329Z,30.50
2017-06-05T10:51:23.430Z,29.90
2017-06-05T10:53:51.598Z,29.10
2017-06-05T10:56:19.741Z,29.80
2017-06-05T10:58:47.837Z,29.30
2017-06-05T11:01:15.917Z,28.50
2017-06-05T11:03:43.996Z,29.30
2017-06-05T11:06:12.056Z,29.10
2017-06-05T11:08:40.138Z,29.80
2017-06-05T11:11:08.190Z,27.00
2017-06-05T11:13:36.239Z,26.90
2017-06-05T11:16:04.329Z,27.70
2017-06-05T11:18:32.381Z,27.50
2017-06-05T11:21:00.494Z,27.40
2017-06-05T11:23:28.573Z,27.90
2017-06-05T11:25:57.393Z,27.30
2017-06-05T11:28:25.496Z,27.30
2017-06-05T11:30:53.669Z,28.70
2017-06-05T11:33:21.746Z,27.10
2017-06-05T11:35:49.802Z,26.80
2017-06-05T11:38:17.929Z,26.90
2017-06-05T11:40:45.978Z,26.50
2017-06-05T11:43:14.120Z,27.20
2017-06-05T11:45:42.206Z,26.50
2017-06-05T11:48:10.286Z,27.10
2017-06-05T11:50:38.346Z,25.80
2017-06-05T11:53:06.485Z,25.50
2017-06-05T11:55:34.550Z,26.90
2017-06-05T11:58:03.357Z,25.60
2017-06-05T12:00:31.433Z,25.50
2017-06-05T12:02:59.490Z,25.10
2017-06-05T12:05:27.546Z,24.20
2017-06-05T12:07:58.162Z,26.30
2017-06-05T12:10:26.242Z,26.20
2017-06-05T12:12:55.081Z,24.70
2017-06-05T12:15:23.170Z,24.70
2017-06-05T12:17:51.336Z,24.20
2017-06-05T12:20:19.389Z,24.50
2017-06-05T12:22:47.578Z,24.90
2017-06-05T12:25:15.653Z,24.30
2017-06-05T12:27:43.714Z,22.50
2017-06-05T12:30:11.794Z,22.70
2017-06-05T12:32:39.867Z,20.70
2017-06-05T12:35:07.935Z,20.70
2017-06-05T12:37:36.053Z,21.80
2017-06-05T12:40:04.133Z,22.20
2017-06-05T12:42:33.016Z,21.50
2017-06-05T12:45:01.133Z,21.40
2017-06-05T12:47:29.214Z,22.30
2017-06-05T12:49:57.314Z,22.70
2017-06-05T12:52:25.373Z,22.80
2017-06-05T12:54:53.538Z,21.50
2017-06-05T12:57:21.641Z,20.50
2017-06-05T12:59:49.708Z,20.30
2017-06-05T13:02:17.789Z,20.70
2017-06-05T13:04:46.625Z,20.10
2017-06-05T13:07:14.677Z,19.40
2017-06-05T13:09:42.797Z,19.80
2017-06-05T13:12:10.965Z,20.80
2017-06-05T13:14:39.009Z,19.70
2017-06-05T13:17:07.817Z,20.50
2017-06-05T13:19:35.853Z,21.60
2017-06-05T13:22:03.953Z,20.40
2017-06-05T13:24:32.057Z,19.70
2017-06-05T13:27:00.214Z,20.60
2017-06-05T13:29:28.274Z,19.90
2017-06-05T13:31:56.449Z,18.40
2017-06-05T13:34:24.541Z,19.00
2017-06-05T13:36:52.693Z,17.90
2017-06-05T13:39:20.870Z,18.00
2017-06-05T13:41:48.922Z,18.40
2017-06-05T13:44:16.977Z,18.90
2017-06-05T13:46:45.058Z,18.70
2017-06-05T13:49:13.153Z,18.60
2017-06-05T13:51:41.284Z,19.80
2017-06-05T13:54:09.349Z,19.50
2017-06-05T13:56:37.401Z,19.50
2017-06-05T13:59:05.569Z,18.20
2017-06-05T14:01:33.735Z,17.60
2017-06-05T14:04:01.803Z,17.00
2017-06-05T14:06:29.894Z,18.10
2017-06-05T14:08:57.969Z,18.10
2017-06-05T14:11:26.025Z,16.30
2017-06-05T14:13:54.085Z,17.90
2017-06-05T14:16:22.174Z,16.80
2017-06-05T14:18:50.230Z,16.50
2017-06-05T14:21:18.282Z,15.50
2017-06-05T14:23:46.433Z,16.00
2017-06-05T14:26:15.258Z,16.80
2017-06-05T14:28:43.529Z,16.70
2017-06-05T14:31:11.602Z,16.10
2017-06-05T14:33:39.681Z,15.90
2017-06-05T14:36:07.953Z,16.30
2017-06-05T14:38:36.024Z,16.70
2017-06-05T14:41:04.127Z,16.10
2017-06-05T14:43:32.277Z,16.10
2017-06-05T14:46:00.325Z,16.60
2017-06-05T14:48:28.381Z,16.00
2017-06-05T14:50:57.290Z,16.60
2017-06-05T14:53:25.385Z,16.60
2017-06-05T14:55:53.537Z,15.50
2017-06-05T14:58:21.598Z,16.50
2017-06-05T15:00:49.650Z,18.20
2017-06-05T15:03:18.591Z,20.30
2017-06-05T15:05:46.650Z,20.20
2017-06-05T15:08:14.745Z,19.70
2017-06-05T15:10:42.793Z,18.70
2017-06-05T15:13:10.889Z,17.90
2017-06-05T15:15:38.977Z,17.80
2017-06-05T15:18:07.126Z,19.10
2017-06-05T15:20:35.218Z,20.70
2017-06-05T15:23:03.369Z,21.30
2017-06-05T15:25:31.417Z,22.30
2017-06-05T15:27:59.611Z,21.80
2017-06-05T15:30:27.666Z,23.10
2017-06-05T15:32:55.277Z,22.40
2017-06-05T15:35:22.800Z,23.80
2017-06-05T15:37:50.778Z,23.10
2017-06-05T15:40:18.834Z,24.00
2017-06-05T15:42:47.213Z,24.00
2017-06-05T15:45:14.721Z,24.00
2017-06-05T15:47:42.225Z,23.40
2017-06-05T15:50:09.753Z,24.50
2017-06-05T15:52:37.261Z,24.60
2017-06-05T15:55:04.843Z,25.20
2017-06-05T15:57:32.357Z,25.60
2017-06-05T15:59:59.920Z,25.90
2017-06-05T16:02:27.893Z,26.10
2017-06-05T16:04:55.973Z,25.00
2017-06-05T16:07:24.064Z,25.00
2017-06-05T16:09:51.691Z,26.20
2017-06-05T16:12:19.265Z,26.70
2017-06-05T16:14:46.768Z,27.60
2017-06-05T16:17:15.065Z,28.40
2017-06-05T16:19:43.469Z,28.10
2017-06-05T16:22:11.756Z,30.10
2017-06-05T16:24:39.366Z,29.50
2017-06-05T16:27:06.895Z,30.80
2017-06-05T16:29:34.475Z,31.00
2017-06-05T16:32:02.010Z,32.10
2017-06-05T16:34:29.510Z,32.40
2017-06-05T16:36:57.033Z,33.60
2017-06-05T16:39:24.558Z,34.00
2017-06-05T16:41:52.528Z,35.20
2017-06-05T16:44:20.606Z,35.10
2017-06-05T16:46:48.682Z,36.30
2017-06-05T16:49:16.769Z,36.40
2017-06-05T16:51:44.870Z,36.30
2017-06-05T16:54:12.927Z,35.90
2017-06-05T16:56:40.994Z,35.50
2017-06-05T16:59:09.161Z,35.80
2017-06-05T17:01:37.237Z,35.60
2017-06-05T17:04:04.961Z,36.20
2017-06-05T17:06:33.687Z,35.60
2017-06-05T17:09:01.294Z,35.50
2017-06-05T17:11:29.320Z,35.30
2017-06-05T17:13:57.414Z,34.90
2017-06-05T17:16:25.457Z,34.50
2017-06-05T17:18:53.529Z,34.60
2017-06-05T17:21:21.592Z,34.30
2017-06-05T17:23:49.697Z,34.60
2017-06-05T17:26:17.309Z,34.40
2017-06-05T17:28:44.812Z,35.10
2017-06-05T17:31:12.540Z,35.30
2017-06-05T17:33:40.093Z,35.60
2017-06-05T17:36:08.395Z,37.10
2017-06-05T17:38:35.954Z,37.10
2017-06-05T17:41:03.623Z,37.40
2017-06-05T17:43:31.145Z,37.80
2017-06-05T17:45:59.589Z,40.10
2017-06-05T17:48:27.137Z,40.00
2017-06-05T17:50:55.094Z,38.80
2017-06-05T17:53:23.261Z,38.70
2017-06-05T17:55:51.341Z,38.00
2017-06-05T17:58:19.514Z,37.30
2017-06-05T18:00:47.567Z,36.90
2017-06-05T18:03:15.646Z,37.60
2017-06-05T18:05:43.739Z,37.80
2017-06-05T18:08:11.803Z,37.50
2017-06-05T18:10:39.855Z,37.90
2017-06-05T18:13:07.951Z,37.80
2017-06-05T18:15:36.005Z,38.40
2017-06-05T18:18:04.081Z,38.70
2017-06-05T18:20:32.254Z,39.10
2017-06-05T18:23:00.313Z,39.40
2017-06-05T18:25:28.370Z,39.50
2017-06-05T18:27:56.441Z,39.60
2017-06-05T18:30:24.529Z,39.30
2017-06-05T18:32:52.618Z,39.30
2017-06-05T18:35:20.703Z,39.70
2017-06-05T18:37:48.749Z,39.60
2017-06-05T18:40:16.973Z,39.60
2017-06-05T18:42:45.039Z,39.70
2017-06-05T18:45:13.089Z,40.50
2017-06-05T18:47:41.173Z,40.80
2017-06-05T18:50:09.230Z,40.60
2017-06-05T18:52:37.283Z,42.50
2017-06-05T18:55:05.465Z,43.40
2017-06-05T18:57:33.541Z,42.70
2017-06-05T19:00:01.129Z,43.30
2017-06-05T19:02:28.652Z,43.60
2017-06-05T19:04:56.161Z,44.90
2017-06-05T19:07:23.687Z,45.60
2017-06-05T19:09:51.231Z,46.20
2017-06-05T19:12:18.732Z,46.50
2017-06-05T19:14:46.250Z,46.90
2017-06-05T19:17:13.782Z,47.40
2017-06-05T19:19:41.287Z,48.10
2017-06-05T19:22:08.785Z,48.40
2017-06-05T19:24:36.818Z,48.70
2017-06-05T19:27:04.329Z,49.10
2017-06-05T19:29:32.623Z,49.50
2017-06-05T19:32:00.918Z,49.80
2017-06-05T19:34:28.429Z,49.70
2017-06-05T19:36:56.701Z,49.70
2017-06-05T19:39:25.009Z,50.40
2017-06-05T19:41:52.517Z,50.30
2017-06-05T19:44:20.031Z,50.40
2017-06-05T19:46:47.549Z,51.00
2017-06-05T19:49:15.049Z,51.30
2017-06-05T19:51:42.585Z,51.70
2017-06-05T19:54:10.553Z,51.30
2017-06-05T19:56:38.646Z,50.20
2017-06-05T19:59:06.768Z,50.20
2017-06-05T20:01:34.923Z,50.40
2017-06-05T20:04:03.045Z,50.50
2017-06-05T20:06:31.143Z,50.60
2017-06-05T20:08:59.201Z,50.90
2017-06-05T20:11:27.310Z,50.90
2017-06-05T20:13:55.344Z,51.90
2017-06-05T20:16:23.438Z,52.30
2017-06-05T20:18:51.609Z,52.20
2017-06-05T20:21:19.682Z,52.20
2017-06-05T20:23:47.753Z,51.80
2017-06-05T20:26:15.903Z,52.40
2017-06-05T20:28:44.106Z,52.90
2017-06-05T20:31:13.411Z,53.30
2017-06-05T20:33:41.477Z,52.80
2017-06-05T20:36:09.529Z,52.80
2017-06-05T20:38:37.626Z,53.00
2017-06-05T20:41:05.793Z,53.90
2017-06-05T20:43:33.874Z,53.70
2017-06-05T20:46:01.922Z,53.90
2017-06-05T20:48:30.113Z,54.40
2017-06-05T20:50:58.186Z,54.70
2017-06-05T20:53:26.271Z,54.90
2017-06-05T20:55:54.353Z,55.30
2017-06-05T20:58:22.401Z,54.90
2017-06-05T21:00:50.457Z,56.10
2017-06-05T21:03:18.537Z,55.30
2017-06-05T21:05:46.622Z,55.20
2017-06-05T21:08:14.689Z,55.40
2017-06-05T21:10:42.863Z,55.30
2017-06-05T21:13:10.943Z,55.60
2017-06-05T21:15:39.110Z,54.60
2017-06-05T21:18:07.181Z,55.30
2017-06-05T21:20:35.246Z,54.70
2017-06-05T21:23:03.427Z,55.10
2017-06-05T21:25:31.486Z,55.40
2017-06-05T21:27:59.554Z,55.40
2017-06-05T21:30:27.642Z,56.00
2017-06-05T21:32:55.710Z,56.10
2017-06-05T21:35:23.787Z,55.50
2017-06-05T21:37:51.941Z,56.00
2017-06-05T21:40:20.034Z,55.80
2017-06-05T21:42:48.201Z,56.40
2017-06-05T21:45:16.277Z,57.00
2017-06-05T21:47:44.366Z,57.00
2017-06-05T21:50:12.757Z,57.00
2017-06-05T21:52:41.209Z,56.30
2017-06-05T21:55:09.997Z,57.20
2017-06-05T21:57:38.169Z,57.10
2017-06-05T22:00:06.249Z,56.70
2017-06-05T22:02:34.322Z,57.00
2017-06-05T22:05:02.485Z,57.00
2017-06-05T22:07:30.566Z,57.00
2017-06-05T22:09:58.743Z,57.20
2017-06-05T22:12:26.806Z,57.50
2017-06-05T22:14:54.930Z,58.50
2017-06-05T22:17:23.020Z,58.70
2017-06-05T22:19:51.846Z,58.10
2017-06-05T22:22:20.013Z,58.10
2017-06-05T22:24:48.090Z,58.10
2017-06-05T22:27:16.165Z,57.70
2017-06-05T22:29:44.337Z,58.80
2017-06-05T22:32:12.405Z,57.60
2017-06-05T22:34:40.487Z,58.10
2017-06-05T22:37:08.557Z,57.70
2017-06-05T22:39:36.625Z,58.50
2017-06-05T22:42:04.702Z,58.80
2017-06-05T22:44:32.877Z,58.60
2017-06-05T22:47:00.974Z,58.80
2017-06-05T22:49:29.101Z,58.80
2017-06-05T22:51:57.153Z,59.20
2017-06-05T22:54:26.082Z,58.70
2017-06-05T22:56:54.493Z,58.70
2017-06-05T22:59:22.542Z,58.50
2017-06-05T23:01:50.641Z,59.80
2017-06-05T23:04:18.760Z,59.90
2017-06-05T23:06:46.849Z,57.50
2017-06-05T23:09:14.913Z,57.60
2017-06-05T23:11:43.093Z,59.80
2017-06-05T23:14:11.178Z,59.90
2017-06-05T23:16:39.209Z,61.00
2017-06-05T23:19:07.317Z,61.30
2017-06-05T23:21:35.376Z,59.80
2017-06-05T23:24:03.453Z,59.60
2017-06-05T23:26:31.626Z,60.50
2017-06-05T23:28:59.673Z,61.00
2017-06-05T23:31:27.727Z,60.80
2017-06-05T23:33:56.660Z,60.30
2017-06-05T23:36:24.714Z,60.20
2017-06-05T23:38:52.805Z,60.90
2017-06-05T23:41:20.890Z,63.30
2017-06-05T23:43:48.962Z,63.10
2017-06-05T23:46:17.150Z,62.20
2017-06-05T23:48:45.242Z,61.50
2017-06-05T23:51:13.313Z,61.70
2017-06-05T23:53:41.435Z,62.80
2017-06-05T23:56:09.562Z,63.60
2017-06-05T23:58:37.637Z,64.00
